Time;durP1;ratioP1;P1;durP2;ratioP2;P2;SDS_P1;SDS_P2;PMS_P1;PMS_P2;Temp;Humidity;BMP_temperature;BMP_pressure;BME280_temperature;BME280_humidity;BME280_pressure;Samples;Min_cycle;Max_cycle;Signal;HPM_P1;HPM_P2
2023/10/31 00:02:34;;;;;;;5.43;2.85;;;14.50;99.90;;;;;;2621292;46;20865;31
2023/10/31 00:05:13;;;;;;;6.05;2.75;;;14.50;99.90;;;;;;2603052;54;20038;31
2023/10/31 00:07:54;;;;;;;5.25;2.58;;;14.50;99.90;;;;;;2603039;54;20859;31
2023/10/31 00:10:34;;;;;;;6.50;2.85;;;14.50;99.90;;;;;;2602901;54;20038;31
2023/10/31 00:13:10;;;;;;;5.45;2.50;;;14.50;99.90;;;;;;2602839;54;20120;31
2023/10/31 00:15:46;;;;;;;7.18;3.05;;;14.50;99.90;;;;;;2603097;54;20118;31
2023/10/31 00:18:22;;;;;;;4.65;3.00;;;14.60;99.90;;;;;;2603039;54;20808;31
2023/10/31 00:20:58;;;;;;;4.18;2.63;;;14.60;99.90;;;;;;2621779;47;20854;31
2023/10/31 00:23:34;;;;;;;6.93;2.53;;;14.60;99.90;;;;;;2701413;39;20578;31
2023/10/31 00:26:12;;;;;;;;;;;14.60;99.90;;;;;;2603404;54;20035;31
2023/10/31 00:28:54;;;;;;;7.93;2.95;;;14.60;99.90;;;;;;2602816;54;19939;31
2023/10/31 00:31:29;;;;;;;5.55;2.50;;;14.60;99.90;;;;;;2603012;54;20023;31
2023/10/31 00:34:03;;;;;;;6.15;2.78;;;14.60;99.90;;;;;;2621180;47;22363;31
2023/10/31 00:36:39;;;;;;;6.20;2.50;;;;;;;;;;2603199;54;20587;31
2023/10/31 00:39:16;;;;;;;5.95;2.58;;;14.60;99.90;;;;;;2621305;47;21132;31
2023/10/31 00:47:39;;;;;;;7.72;2.25;;;14.60;99.90;;;;;;2603068;54;20031;31
2023/10/31 00:50:16;;;;;;;6.53;2.47;;;14.60;99.90;;;;;;2602846;54;20027;31
2023/10/31 00:52:57;;;;;;;6.32;2.50;;;14.60;99.90;;;;;;2603008;54;20554;31
2023/10/31 00:56:07;;;;;;;5.60;2.57;;;14.60;99.90;;;;;;2603465;47;20061;31
2023/10/31 00:58:52;;;;;;;4.80;2.40;;;14.60;99.90;;;;;;2602892;54;20873;31
2023/10/31 01:01:28;;;;;;;4.63;2.37;;;14.60;99.90;;;;;;2602943;54;20035;31
2023/10/31 01:04:04;;;;;;;7.20;2.35;;;14.60;99.90;;;;;;2602823;54;20822;31
2023/10/31 01:06:48;;;;;;;9.40;2.75;;;14.60;99.90;;;;;;2602988;54;20873;31
2023/10/31 01:09:24;;;;;;;6.15;2.50;;;14.60;99.90;;;;;;2602812;54;21132;31
2023/10/31 01:12:05;;;;;;;11.20;2.80;;;14.60;99.90;;;;;;2602747;54;20970;31
2023/10/31 01:14:52;;;;;;;6.03;2.17;;;14.60;99.90;;;;;;2603082;54;20093;31
2023/10/31 01:17:28;;;;;;;3.50;1.92;;;14.70;99.90;;;;;;2602864;54;20022;31
2023/10/31 01:20:09;;;;;;;4.60;1.85;;;14.70;99.90;;;;;;2602893;54;20096;31
2023/10/31 01:23:11;;;;;;;4.63;2.08;;;14.70;99.90;;;;;;2603671;47;20554;31
2023/10/31 01:25:59;;;;;;;4.00;1.80;;;14.70;99.90;;;;;;2621766;46;20915;31
2023/10/31 01:28:34;;;;;;;4.90;2.00;;;14.70;99.90;;;;;;2603769;54;20030;31
2023/10/31 01:31:12;;;;;;;3.30;1.75;;;14.70;99.90;;;;;;2621753;46;20049;31
2023/10/31 01:33:49;;;;;;;5.38;2.22;;;14.70;99.90;;;;;;2603518;54;20960;31
2023/10/31 01:36:28;;;;;;;5.05;2.13;;;14.70;99.90;;;;;;2603482;54;20057;31
2023/10/31 01:42:31;;;;;;;5.57;3.17;;;14.70;99.90;;;;;;2603403;54;20844;31
2023/10/31 01:45:23;;;;;;;6.43;2.97;;;14.70;99.90;;;;;;2603599;54;20029;31
2023/10/31 01:48:21;;;;;;;8.80;3.00;;;14.70;99.90;;;;;;2603332;54;20950;31
2023/10/31 01:50:56;;;;;;;5.87;2.33;;;14.70;99.90;;;;;;2603766;54;20108;31
2023/10/31 01:53:32;;;;;;;7.55;3.70;;;14.70;99.90;;;;;;2603608;54;20028;31
2023/10/31 01:56:09;;;;;;;6.25;1.90;;;14.70;99.90;;;;;;2603484;54;20031;31
2023/10/31 01:58:49;;;;;;;6.68;2.03;;;14.70;99.90;;;;;;2603497;54;20600;31
2023/10/31 02:01:29;;;;;;;9.07;2.42;;;14.70;99.90;;;;;;2701950;39;20497;31
2023/10/31 02:04:16;;;;;;;4.57;1.83;;;14.70;99.90;;;;;;2603412;54;20915;31
2023/10/31 02:06:54;;;;;;;4.82;2.17;;;14.70;99.90;;;;;;2607396;46;20929;31
2023/10/31 02:09:34;;;;;;;6.03;1.98;;;14.80;99.90;;;;;;2622182;46;20031;31
2023/10/31 02:12:40;;;;;;;2.80;1.55;;;14.80;99.90;;;;;;2603331;54;20065;31
2023/10/31 02:21:42;;;;;;;7.75;2.22;;;;;;;;;;2603247;54;20871;31
2023/10/31 02:24:24;;;;;;;4.60;1.73;;;14.80;99.90;;;;;;2720602;39;20571;31
2023/10/31 02:26:59;;;;;;;3.77;1.87;;;14.80;99.90;;;;;;2603351;54;20928;31
2023/10/31 02:29:34;;;;;;;6.60;1.67;;;14.80;99.90;;;;;;2701909;39;20477;31
2023/10/31 02:32:14;;;;;;;5.53;1.95;;;14.80;99.90;;;;;;2603552;54;20032;31
2023/10/31 02:35:04;;;;;;;5.80;1.85;;;14.80;99.90;;;;;;2603351;54;20068;31
2023/10/31 02:37:47;;;;;;;3.50;1.67;;;14.80;99.90;;;;;;2603189;54;20081;31
2023/10/31 02:40:27;;;;;;;3.30;1.42;;;14.80;99.90;;;;;;2791899;31;20676;31
2023/10/31 02:43:10;;;;;;;5.03;1.88;;;14.80;99.90;;;;;;2622051;46;20095;31
2023/10/31 02:45:47;;;;;;;4.45;2.35;;;14.70;99.90;;;;;;2603331;54;20081;31
2023/10/31 02:48:27;;;;;;;3.15;1.50;;;14.70;99.90;;;;;;2621372;46;20874;31
2023/10/31 02:54:22;;;;;;;3.45;1.77;;;14.70;99.90;;;;;;2622066;46;20057;31
2023/10/31 02:57:01;;;;;;;7.40;1.70;;;14.70;99.90;;;;;;2621814;46;20923;31
2023/10/31 02:59:37;;;;;;;5.72;2.13;;;14.70;99.90;;;;;;2622100;46;20921;31
2023/10/31 03:02:14;;;;;;;4.47;1.75;;;14.70;99.90;;;;;;2603362;54;20037;31
2023/10/31 03:05:07;;;;;;;10.60;2.70;;;14.60;99.90;;;;;;2621345;46;20027;31
2023/10/31 03:07:45;;;;;;;5.90;2.75;;;14.60;99.90;;;;;;2720224;39;20534;31
2023/10/31 03:10:22;;;;;;;7.68;2.28;;;14.60;99.90;;;;;;2603464;54;20600;31
2023/10/31 03:12:59;;;;;;;6.17;2.87;;;14.60;99.90;;;;;;2603336;54;20868;31
2023/10/31 03:15:42;;;;;;;6.65;2.67;;;14.60;99.90;;;;;;2603265;54;20928;31
2023/10/31 03:18:26;;;;;;;7.90;3.13;;;14.60;99.90;;;;;;2603295;54;20148;31
2023/10/31 03:21:02;;;;;;;8.93;2.93;;;14.60;99.90;;;;;;2603486;54;20868;31
2023/10/31 03:23:40;;;;;;;5.53;3.10;;;14.60;99.90;;;;;;2603180;54;20026;31
2023/10/31 03:26:20;;;;;;;5.93;2.73;;;14.60;99.90;;;;;;2603200;54;20845;31
2023/10/31 03:29:07;;;;;;;12.75;2.20;;;14.60;99.90;;;;;;2621649;46;20053;31
2023/10/31 03:31:48;;;;;;;7.78;2.35;;;14.60;99.90;;;;;;2603017;54;20085;31
2023/10/31 03:34:22;;;;;;;6.70;3.73;;;14.60;99.90;;;;;;2602910;54;20030;31
2023/10/31 03:37:00;;;;;;;7.30;2.58;;;14.50;99.90;;;;;;2603313;54;20109;31
2023/10/31 03:39:40;;;;;;;4.40;2.17;;;14.60;99.90;;;;;;2603326;54;20577;31
2023/10/31 03:42:18;;;;;;;4.80;2.10;;;14.50;99.90;;;;;;2602922;54;20082;31
2023/10/31 03:44:56;;;;;;;4.30;1.50;;;14.50;99.90;;;;;;2603036;54;20077;31
2023/10/31 03:47:40;;;;;;;6.18;2.30;;;14.50;99.90;;;;;;2772478;31;21588;31
2023/10/31 03:50:22;;;;;;;3.63;1.37;;;14.50;99.90;;;;;;2603239;54;20612;31
2023/10/31 03:53:01;;;;;;;9.70;1.93;;;14.50;99.90;;;;;;2602945;54;20847;31
2023/10/31 03:55:38;;;;;;;6.50;2.10;;;14.50;99.90;;;;;;2602994;54;20234;31
2023/10/31 03:58:20;;;;;;;6.17;1.60;;;14.50;99.90;;;;;;2621937;46;20824;31
2023/10/31 04:01:04;;;;;;;5.33;1.40;;;14.50;99.90;;;;;;2603144;54;20573;31
2023/10/31 04:03:57;;;;;;;2.38;1.40;;;14.60;99.90;;;;;;2603082;54;20905;31
2023/10/31 04:06:32;;;;;;;2.78;1.45;;;14.50;99.90;;;;;;2603059;54;20801;31
2023/10/31 04:09:05;;;;;;;4.10;1.50;;;14.60;99.90;;;;;;2602938;54;20038;31
2023/10/31 04:11:43;;;;;;;4.93;1.33;;;;;;;;;;2603256;54;20022;31
2023/10/31 04:14:20;;;;;;;5.65;1.60;;;14.70;99.90;;;;;;2603007;54;20032;31
2023/10/31 04:17:01;;;;;;;5.13;1.58;;;14.60;99.90;;;;;;2621294;46;20030;31
2023/10/31 04:19:34;;;;;;;3.40;1.50;;;14.70;99.90;;;;;;2603091;54;20026;31
2023/10/31 04:22:09;;;;;;;2.95;1.45;;;14.60;99.90;;;;;;2603127;54;20615;31
2023/10/31 04:24:44;;;;;;;4.72;1.35;;;14.70;99.90;;;;;;2602969;54;20885;31
2023/10/31 04:27:24;;;;;;;3.28;1.35;;;14.70;99.90;;;;;;2602953;54;20569;31
2023/10/31 04:29:59;;;;;;;6.30;2.90;;;;;;;;;;2602977;54;21010;31
2023/10/31 04:32:36;;;;;;;2.75;1.45;;;14.90;99.90;;;;;;2602699;54;21006;31
2023/10/31 04:35:18;;;;;;;2.80;1.40;;;14.90;99.90;;;;;;2602295;54;20955;31
2023/10/31 04:37:56;;;;;;;2.65;1.05;;;14.90;99.90;;;;;;2603035;54;20053;31
2023/10/31 04:40:31;;;;;;;3.72;1.27;;;15.00;99.90;;;;;;2602913;54;19962;31
2023/10/31 04:43:10;;;;;;;4.88;1.20;;;15.00;99.90;;;;;;2602962;54;20109;31
2023/10/31 04:45:46;;;;;;;3.55;1.30;;;15.00;99.90;;;;;;2602816;54;20964;31
2023/10/31 04:48:29;;;;;;;6.93;1.58;;;15.00;99.90;;;;;;2606267;47;20026;31
2023/10/31 04:51:12;;;;;;;4.95;1.50;;;15.00;99.90;;;;;;2602844;54;19934;31
2023/10/31 04:53:49;;;;;;;3.63;1.40;;;15.00;99.90;;;;;;2621094;47;20873;31
2023/10/31 04:56:33;;;;;;;4.60;1.50;;;15.00;99.90;;;;;;2602903;54;20022;31
2023/10/31 04:59:08;;;;;;;3.20;1.40;;;15.00;99.90;;;;;;2603195;54;20940;31
2023/10/31 05:01:43;;;;;;;2.07;0.90;;;15.10;99.90;;;;;;2603788;54;20033;31
2023/10/31 05:04:35;;;;;;;3.15;1.20;;;15.10;99.90;;;;;;2603659;54;20078;31
2023/10/31 05:07:11;;;;;;;5.55;1.27;;;15.00;99.90;;;;;;2621841;46;20842;31
2023/10/31 05:12:41;;;;;;;3.55;1.00;;;15.20;99.90;;;;;;2702306;39;20590;31
2023/10/31 05:15:28;;;;;;;3.15;1.27;;;15.30;99.90;;;;;;2608908;46;20051;31
2023/10/31 05:18:11;;;;;;;4.53;0.90;;;15.30;99.90;;;;;;2622092;46;20797;31
2023/10/31 05:20:52;;;;;;;2.85;0.50;;;15.40;99.90;;;;;;2603849;54;20081;31
2023/10/31 05:23:26;;;;;;;4.55;1.15;;;15.40;99.90;;;;;;2603602;54;20909;31
2023/10/31 05:26:02;;;;;;;3.63;1.00;;;15.50;99.90;;;;;;2603726;54;20033;31
2023/10/31 05:28:42;;;;;;;5.33;1.20;;;15.50;99.90;;;;;;2622103;46;20029;31
2023/10/31 05:31:19;;;;;;;3.65;1.00;;;15.60;99.90;;;;;;2603547;54;20911;31
2023/10/31 05:33:57;;;;;;;3.58;1.00;;;15.70;99.90;;;;;;2603548;54;20049;31
2023/10/31 05:36:37;;;;;;;4.50;1.10;;;15.70;99.90;;;;;;2603770;54;20037;31
2023/10/31 05:39:14;;;;;;;5.50;1.00;;;15.80;99.90;;;;;;2603712;54;20023;31
2023/10/31 05:41:50;;;;;;;5.50;0.98;;;15.80;99.90;;;;;;2621798;46;20155;31
2023/10/31 05:44:26;;;;;;;2.80;1.23;;;15.70;99.90;;;;;;2603826;54;20026;31
2023/10/31 05:47:05;;;;;;;2.42;0.82;;;15.70;99.90;;;;;;2603528;54;20964;31
2023/10/31 05:49:41;;;;;;;4.67;1.00;;;15.70;99.90;;;;;;2621327;46;20034;31
2023/10/31 05:52:24;;;;;;;7.85;1.20;;;15.70;99.90;;;;;;2603516;54;21011;31
2023/10/31 05:55:03;;;;;;;4.05;1.15;;;15.70;99.90;;;;;;2603672;54;20369;31
2023/10/31 05:57:52;;;;;;;3.42;1.08;;;15.60;99.90;;;;;;2603461;54;20815;31
2023/10/31 06:00:27;;;;;;;2.10;1.20;;;15.60;99.90;;;;;;2621813;46;20048;31
2023/10/31 06:03:04;;;;;;;2.50;1.27;;;15.60;99.90;;;;;;2603556;54;20096;31
2023/10/31 06:05:43;;;;;;;7.13;1.55;;;15.60;99.90;;;;;;2603479;54;20958;31
2023/10/31 06:08:24;;;;;;;3.55;1.35;;;15.50;99.90;;;;;;2603534;54;20038;31
2023/10/31 06:11:00;;;;;;;4.40;1.70;;;15.50;99.90;;;;;;2603263;54;20027;31
2023/10/31 06:13:36;;;;;;;4.13;1.37;;;15.50;99.90;;;;;;2603445;54;20061;31
2023/10/31 06:16:15;;;;;;;6.03;1.58;;;15.50;99.90;;;;;;2603693;54;20026;31
2023/10/31 06:18:52;;;;;;;7.93;1.60;;;15.40;99.90;;;;;;2603546;54;20105;31
2023/10/31 06:21:33;;;;;;;5.60;1.87;;;15.40;99.90;;;;;;2603361;54;20796;31
2023/10/31 06:24:15;;;;;;;4.15;1.75;;;15.40;99.90;;;;;;2622037;46;21069;31
2023/10/31 06:26:53;;;;;;;5.57;1.63;;;15.30;99.90;;;;;;2602617;54;20031;31
2023/10/31 06:29:30;;;;;;;5.20;1.70;;;15.30;99.90;;;;;;2603449;54;20031;31
2023/10/31 06:32:26;;;;;;;3.03;2.53;;;15.30;99.90;;;;;;2603747;54;20081;31
2023/10/31 06:35:02;;;;;;;4.28;1.63;;;15.30;99.90;;;;;;2603496;54;20046;31
2023/10/31 06:37:40;;;;;;;9.05;2.17;;;15.30;99.90;;;;;;2603316;54;20027;31
2023/10/31 06:40:19;;;;;;;4.47;1.70;;;15.20;99.90;;;;;;2621889;46;20037;31
2023/10/31 06:42:56;;;;;;;7.70;2.20;;;15.20;99.90;;;;;;2603384;54;20030;31
2023/10/31 06:45:31;;;;;;;3.83;1.67;;;15.20;99.90;;;;;;2603507;54;20034;31
2023/10/31 06:48:09;;;;;;;4.00;1.97;;;15.20;99.90;;;;;;2603280;54;20850;31
2023/10/31 06:50:46;;;;;;;6.65;1.70;;;15.20;99.90;;;;;;2603433;54;20857;31
2023/10/31 06:53:23;;;;;;;4.75;1.80;;;15.20;99.90;;;;;;2603478;54;20027;31
2023/10/31 06:56:03;;;;;;;2.87;1.70;;;15.20;99.90;;;;;;2603209;54;21517;31
2023/10/31 06:58:40;;;;;;;3.47;1.77;;;15.20;99.90;;;;;;2603257;54;20022;31
2023/10/31 07:01:18;;;;;;;5.50;2.20;;;15.20;99.90;;;;;;2603468;54;20022;31
2023/10/31 07:03:53;;;;;;;3.83;1.63;;;15.20;99.90;;;;;;2621793;46;20057;31
2023/10/31 07:06:30;;;;;;;4.73;1.70;;;15.20;99.90;;;;;;2603214;54;20817;31
2023/10/31 07:09:07;;;;;;;4.88;2.00;;;15.20;99.90;;;;;;2621841;46;20297;31
2023/10/31 07:11:47;;;;;;;3.47;1.83;;;15.20;99.90;;;;;;2603416;54;20890;31
2023/10/31 07:14:23;;;;;;;6.50;1.92;;;15.10;99.90;;;;;;2609724;46;20045;31
2023/10/31 07:17:02;;;;;;;6.88;2.47;;;15.20;99.90;;;;;;2603228;54;20026;31
2023/10/31 07:19:37;;;;;;;3.15;1.95;;;15.20;99.90;;;;;;2621623;46;20072;31
2023/10/31 07:22:18;;;;;;;5.50;2.10;;;15.10;99.90;;;;;;2603135;54;20030;31
2023/10/31 07:24:57;;;;;;;4.15;2.00;;;15.10;99.90;;;;;;2603321;54;20022;31
2023/10/31 07:27:36;;;;;;;4.88;3.28;;;15.10;99.90;;;;;;2620766;46;20075;31
2023/10/31 07:30:14;;;;;;;22.42;10.60;;;15.10;99.90;;;;;;2620823;46;20097;31
2023/10/31 07:32:50;;;;;;;76.53;35.55;;;15.00;99.90;;;;;;2603154;54;20034;31
2023/10/31 07:35:28;;;;;;;59.30;25.27;;;15.00;99.90;;;;;;2603149;54;20053;31
2023/10/31 07:38:07;;;;;;;55.40;28.20;;;14.80;99.90;;;;;;2603173;54;20030;31
2023/10/31 07:40:47;;;;;;;18.33;10.88;;;14.70;99.90;;;;;;2621636;46;20640;31
2023/10/31 07:43:40;;;;;;;34.90;19.52;;;14.70;99.90;;;;;;2603140;54;20879;31
2023/10/31 07:46:18;;;;;;;12.55;8.75;;;14.60;99.90;;;;;;2701727;39;20470;31
2023/10/31 07:49:07;;;;;;;29.08;17.05;;;14.60;99.90;;;;;;2605599;46;20042;31
2023/10/31 07:51:48;;;;;;;14.35;10.10;;;14.60;99.90;;;;;;2620382;46;20023;31
2023/10/31 07:54:30;;;;;;;16.50;10.40;;;14.60;99.90;;;;;;2603143;54;20844;31
2023/10/31 07:57:11;;;;;;;40.22;25.67;;;14.60;99.90;;;;;;2621876;46;20246;31
2023/10/31 07:59:50;;;;;;;15.37;10.80;;;14.60;99.90;;;;;;2621666;46;20050;31
2023/10/31 08:02:31;;;;;;;6.43;4.47;;;14.60;99.90;;;;;;2603221;54;21186;31
2023/10/31 08:05:07;;;;;;;3.00;2.40;;;14.60;99.90;;;;;;2621526;46;20026;31
2023/10/31 08:07:43;;;;;;;3.55;1.95;;;14.60;99.90;;;;;;2622112;46;20026;31
2023/10/31 08:10:31;;;;;;;7.70;4.72;;;14.50;99.90;;;;;;2603156;54;20042;31
2023/10/31 08:13:20;;;;;;;110.95;74.65;;;14.50;99.90;;;;;;2603110;54;20018;31
2023/10/31 08:15:59;;;;;;;13.73;10.00;;;14.50;99.90;;;;;;2621239;46;20932;31
2023/10/31 08:18:36;;;;;;;3.80;2.55;;;14.50;99.90;;;;;;2602955;54;20860;31
2023/10/31 08:21:18;;;;;;;2.15;1.70;;;14.50;99.90;;;;;;2603156;54;20901;31
2023/10/31 08:26:59;;;;;;;3.37;2.70;;;14.40;99.90;;;;;;2603044;54;20347;31
2023/10/31 08:29:35;;;;;;;2.58;1.83;;;14.40;99.90;;;;;;2621627;47;20027;31
2023/10/31 08:32:13;;;;;;;2.80;1.40;;;14.40;99.90;;;;;;2602873;54;19941;31
2023/10/31 08:34:57;;;;;;;2.85;1.35;;;14.50;99.90;;;;;;2606667;47;20038;31
2023/10/31 08:37:42;;;;;;;3.00;2.50;;;14.50;99.90;;;;;;2622456;46;20073;31
2023/10/31 08:40:17;;;;;;;1.70;1.10;;;14.50;99.90;;;;;;2603688;54;20065;31
2023/10/31 08:42:55;;;;;;;5.45;1.60;;;14.50;99.90;;;;;;2603533;54;20022;31
2023/10/31 08:45:39;;;;;;;3.05;1.77;;;14.60;99.90;;;;;;2603607;54;20293;31
2023/10/31 08:48:21;;;;;;;10.53;7.27;;;14.50;99.90;;;;;;2603782;54;20769;31
2023/10/31 08:50:59;;;;;;;6.30;2.33;;;14.50;99.90;;;;;;2620761;46;20026;31
2023/10/31 08:59:59;;;;;;;17.65;8.55;;;14.60;99.90;;;;;;2603508;54;20023;31
2023/10/31 09:09:33;;;;;;;9.38;5.85;;;14.80;99.90;;;;;;2603621;54;20239;31
2023/10/31 09:14:42;;;;;;;1.55;0.90;;;14.90;99.90;;;;;;2603747;54;20030;31
2023/10/31 09:17:22;;;;;;;3.15;1.20;;;15.00;99.90;;;;;;2603346;54;20022;31
2023/10/31 09:23:05;;;;;;;5.03;3.37;;;15.20;99.90;;;;;;2603860;54;20023;31
2023/10/31 09:28:57;;;;;;;5.05;3.50;;;15.40;99.90;;;;;;2603666;54;20249;31
2023/10/31 09:31:36;;;;;;;6.07;2.58;;;15.60;99.90;;;;;;2603864;54;20026;31
2023/10/31 09:34:14;;;;;;;3.10;1.15;;;15.80;99.90;;;;;;2622131;46;20081;31
2023/10/31 09:36:50;;;;;;;1.08;0.45;;;16.00;99.90;;;;;;2621927;46;20086;31
2023/10/31 09:39:28;;;;;;;1.25;0.40;;;16.10;99.90;;;;;;2603458;54;20939;31
2023/10/31 09:42:36;;;;;;;0.70;0.40;;;16.20;99.90;;;;;;2622056;46;20814;31
2023/10/31 09:45:29;;;;;;;1.42;0.50;;;16.30;99.90;;;;;;2621687;46;20841;31
2023/10/31 09:48:08;;;;;;;1.55;0.40;;;16.30;99.90;;;;;;2603454;54;19950;31
2023/10/31 09:51:10;;;;;;;1.00;0.55;;;16.30;99.90;;;;;;2621832;46;20030;31
2023/10/31 09:54:00;;;;;;;1.93;0.40;;;16.40;99.90;;;;;;2621686;46;20805;31
2023/10/31 09:56:46;;;;;;;1.98;0.57;;;16.30;99.90;;;;;;2603204;54;20018;31
2023/10/31 10:05:42;;;;;;;;;;;16.10;99.90;;;;;;2700430;39;22107;31
2023/10/31 10:08:23;;;;;;;2.23;0.40;;;16.20;99.90;;;;;;2621485;46;19942;31
2023/10/31 10:11:18;;;;;;;1.85;0.55;;;16.10;99.90;;;;;;2622064;46;21432;31
2023/10/31 10:14:22;;;;;;;2.20;0.70;;;16.10;99.90;;;;;;2603335;54;20088;31
2023/10/31 10:20:40;;;;;;;1.80;0.57;;;16.00;99.90;;;;;;2603542;54;20045;31
2023/10/31 10:23:18;;;;;;;;;;;15.90;99.90;;;;;;2603609;54;20026;31
2023/10/31 10:25:56;;;;;;;1.00;0.57;;;15.70;99.90;;;;;;2621929;46;20721;31
2023/10/31 10:31:40;;;;;;;0.50;0.22;;;15.40;99.90;;;;;;2603492;54;20089;31
2023/10/31 10:34:39;;;;;;;1.75;0.43;;;15.30;99.90;;;;;;2603403;54;20862;31
2023/10/31 10:37:26;;;;;;;0.85;0.20;;;15.10;99.90;;;;;;2603469;54;20883;31
2023/10/31 10:40:07;;;;;;;0.80;0.30;;;14.90;99.90;;;;;;2603432;54;20876;31
2023/10/31 10:42:56;;;;;;;0.47;0.22;;;14.80;99.90;;;;;;2622017;46;20913;31
2023/10/31 10:54:58;;;;;;;0.70;0.30;;;14.60;99.90;;;;;;2603301;54;20797;31
2023/10/31 10:57:39;;;;;;;0.90;0.50;;;14.60;99.90;;;;;;2603321;54;20247;31
2023/10/31 11:00:24;;;;;;;0.68;0.15;;;14.60;99.90;;;;;;2603444;54;20790;31
2023/10/31 11:03:27;;;;;;;1.08;0.20;;;14.70;99.90;;;;;;2701910;39;20466;31
2023/10/31 11:06:18;;;;;;;0.85;0.35;;;14.70;99.90;;;;;;2603378;54;20930;31
2023/10/31 11:08:55;;;;;;;0.90;0.32;;;14.70;99.90;;;;;;2603258;54;20884;31
2023/10/31 12:05:16;;;;;;;1.60;0.80;;;14.80;96.00;;;;;;2600626;54;20970;31
2023/10/31 12:17:49;;;;;;;0.75;0.20;;;14.90;98.30;;;;;;2600491;54;20022;31
2023/10/31 12:26:44;;;;;;;1.20;0.20;;;14.90;89.70;;;;;;2606561;47;20903;31
2023/10/31 12:35:33;;;;;;;0.20;0.20;;;14.80;81.30;;;;;;2602682;54;21046;31
2023/10/31 12:44:00;;;;;;;0.90;0.20;;;14.80;82.00;;;;;;2621468;47;20026;31
2023/10/31 12:46:35;;;;;;;0.70;0.30;;;14.80;83.00;;;;;;2602989;54;20098;31
2023/10/31 12:49:15;;;;;;;0.60;0.30;;;14.80;81.90;;;;;;2602946;54;20967;31
2023/10/31 12:52:11;;;;;;;0.95;0.20;;;14.80;80.10;;;;;;2603175;54;20057;31
2023/10/31 12:55:05;;;;;;;0.70;0.10;;;14.70;77.60;;;;;;2605939;47;20046;31
2023/10/31 13:04:50;;;;;;;0.75;0.40;;;14.70;84.40;;;;;;2602627;54;20115;31
2023/10/31 13:11:13;;;;;;;;;;;;;;;;;;;;;
2023/10/31 13:52:15;;;;;;;0.50;0.30;;;14.30;78.90;;;;;;2603440;54;20781;31
2023/10/31 13:54:55;;;;;;;;;;;14.40;82.50;;;;;;2622277;46;20027;31
2023/10/31 14:28:26;;;;;;;3.10;0.40;;;14.30;90.20;;;;;;2603852;54;20546;31
2023/10/31 14:31:01;;;;;;;0.90;0.35;;;14.20;91.20;;;;;;2603742;54;20022;31
2023/10/31 14:33:37;;;;;;;1.17;0.40;;;14.20;91.00;;;;;;2603383;54;20113;31
2023/10/31 14:36:13;;;;;;;;;;;14.20;92.00;;;;;;2603692;54;20901;31
2023/10/31 14:38:48;;;;;;;2.05;0.35;;;14.20;92.60;;;;;;2603295;54;19934;31
2023/10/31 14:41:25;;;;;;;0.53;0.30;;;14.20;93.30;;;;;;2603435;54;20800;31
2023/10/31 14:44:02;;;;;;;1.48;0.50;;;14.20;94.20;;;;;;2720262;39;21900;31
2023/10/31 14:46:36;;;;;;;1.10;0.50;;;14.20;94.60;;;;;;2603238;54;20030;31
2023/10/31 14:49:11;;;;;;;2.60;0.57;;;14.20;94.80;;;;;;2603247;54;20096;31
2023/10/31 14:51:47;;;;;;;0.60;0.35;;;14.20;95.10;;;;;;2701885;39;20508;31
2023/10/31 14:54:22;;;;;;;4.00;0.77;;;14.10;95.60;;;;;;2603444;54;21008;31
2023/10/31 14:57:01;;;;;;;3.45;1.05;;;14.10;96.10;;;;;;2603597;54;20573;31
2023/10/31 14:59:36;;;;;;;2.85;1.00;;;14.10;95.60;;;;;;2603315;54;20588;31
2023/10/31 15:02:12;;;;;;;3.13;1.10;;;14.10;96.80;;;;;;2603202;54;20033;31
2023/10/31 15:04:46;;;;;;;3.13;1.30;;;14.00;95.20;;;;;;2603589;54;20838;31
2023/10/31 15:07:22;;;;;;;3.47;1.48;;;14.00;94.50;;;;;;2603349;54;20596;31
2023/10/31 15:09:57;;;;;;;2.67;1.20;;;14.00;95.00;;;;;;2621741;46;20027;31
2023/10/31 15:12:34;;;;;;;3.10;1.40;;;14.00;95.70;;;;;;2621255;46;20032;31
2023/10/31 15:15:09;;;;;;;1.10;0.55;;;14.00;97.10;;;;;;2621809;46;21007;31
2023/10/31 15:17:47;;;;;;;3.22;1.05;;;13.90;96.60;;;;;;2603136;54;20927;31
2023/10/31 15:20:22;;;;;;;5.65;1.42;;;13.90;95.90;;;;;;2603530;54;20854;31
2023/10/31 15:22:57;;;;;;;5.30;1.20;;;14.00;99.90;;;;;;2621342;46;20810;31
2023/10/31 15:25:32;;;;;;;11.63;1.75;;;14.30;99.90;;;;;;2701845;39;20465;31
2023/10/31 15:28:10;;;;;;;0.65;0.57;;;14.50;99.90;;;;;;2603379;54;20596;31
2023/10/31 15:30:47;;;;;;;7.05;1.20;;;14.60;96.70;;;;;;2603348;54;21049;31
2023/10/31 15:33:21;;;;;;;21.85;7.75;;;14.60;95.40;;;;;;2602858;54;20088;31
2023/10/31 15:35:56;;;;;;;17.23;6.32;;;14.70;99.90;;;;;;2603343;54;20030;31
2023/10/31 15:38:32;;;;;;;9.65;2.20;;;14.70;92.80;;;;;;2701813;39;20485;31
2023/10/31 15:41:07;;;;;;;7.13;1.58;;;14.60;90.30;;;;;;2603151;54;20957;31
2023/10/31 15:43:52;;;;;;;3.08;1.25;;;14.40;85.20;;;;;;2612969;46;20033;31
2023/10/31 15:46:26;;;;;;;;;;;14.40;89.80;;;;;;2603389;54;20886;31
2023/10/31 15:49:01;;;;;;;3.00;1.40;;;14.30;90.50;;;;;;2603205;54;20697;31
2023/10/31 15:51:36;;;;;;;4.38;0.90;;;14.20;88.10;;;;;;2701801;39;20505;31
2023/10/31 15:54:13;;;;;;;3.13;1.15;;;14.20;89.80;;;;;;2602821;54;20026;31
2023/10/31 15:56:48;;;;;;;3.50;1.70;;;14.30;96.40;;;;;;2603130;54;21678;31
2023/10/31 15:59:25;;;;;;;4.35;1.90;;;14.20;92.30;;;;;;2603164;54;20022;31
2023/10/31 16:02:04;;;;;;;4.00;1.35;;;14.10;92.20;;;;;;2602768;54;20915;31
2023/10/31 16:04:43;;;;;;;5.57;1.30;;;14.10;91.10;;;;;;2603247;54;20038;31
2023/10/31 16:10:04;;;;;;;2.75;1.00;;;14.10;97.40;;;;;;2603398;54;20065;31
2023/10/31 16:12:50;;;;;;;1.67;0.83;;;14.10;97.60;;;;;;2621552;46;21007;31
2023/10/31 16:15:28;;;;;;;5.47;1.70;;;14.10;91.80;;;;;;2603241;54;20048;31
2023/10/31 16:18:03;;;;;;;7.85;2.08;;;14.10;99.90;;;;;;2603367;54;20053;31
2023/10/31 16:20:40;;;;;;;4.03;2.00;;;14.30;99.90;;;;;;2603189;54;20031;31
2023/10/31 16:23:12;;;;;;;3.08;1.65;;;14.30;92.40;;;;;;2713584;39;22497;31
2023/10/31 16:25:47;;;;;;;2.95;1.52;;;14.30;92.30;;;;;;2621527;47;20854;31
2023/10/31 16:28:22;;;;;;;4.33;2.07;;;14.20;89.70;;;;;;2603389;54;21345;31
2023/10/31 16:31:00;;;;;;;3.55;2.00;;;14.20;91.10;;;;;;2602935;54;21109;31
2023/10/31 16:33:35;;;;;;;6.70;2.45;;;14.10;91.40;;;;;;2602978;54;20823;31
2023/10/31 16:36:13;;;;;;;6.50;2.63;;;14.00;99.90;;;;;;2603168;54;20081;31
2023/10/31 16:38:47;;;;;;;3.75;1.63;;;14.00;90.40;;;;;;2602834;54;20902;31
2023/10/31 16:41:22;;;;;;;6.10;1.92;;;14.00;90.90;;;;;;2621464;47;20027;31
2023/10/31 16:43:57;;;;;;;5.70;2.33;;;;;;;;;;2603083;54;20033;31
2023/10/31 16:46:35;;;;;;;10.60;4.50;;;13.90;90.50;;;;;;2603061;54;20775;31
2023/10/31 16:49:10;;;;;;;5.20;2.67;;;13.80;91.10;;;;;;2772763;31;20591;31
2023/10/31 16:51:45;;;;;;;8.98;2.08;;;13.80;92.00;;;;;;2602968;54;20034;31
2023/10/31 16:54:20;;;;;;;8.38;3.50;;;13.70;99.80;;;;;;2701503;39;20496;31
2023/10/31 16:56:54;;;;;;;6.03;3.45;;;13.80;92.50;;;;;;2621467;47;20025;31
2023/10/31 16:59:30;;;;;;;3.35;1.60;;;13.80;91.60;;;;;;2603760;54;20860;31
2023/10/31 17:02:07;;;;;;;5.07;2.22;;;13.80;91.40;;;;;;2621914;46;20043;31
2023/10/31 17:04:42;;;;;;;5.85;2.00;;;13.80;90.30;;;;;;2603588;54;20038;31
2023/10/31 17:07:17;;;;;;;5.40;2.00;;;13.70;91.70;;;;;;2603735;54;20085;31
2023/10/31 17:09:52;;;;;;;3.90;1.45;;;13.70;90.20;;;;;;2603609;54;20046;31
2023/10/31 17:12:27;;;;;;;3.78;1.58;;;13.70;86.10;;;;;;2603631;54;20049;31
2023/10/31 17:15:03;;;;;;;6.95;3.17;;;13.60;89.20;;;;;;2603611;54;20886;31
2023/10/31 17:17:42;;;;;;;25.67;10.88;;;13.60;89.30;;;;;;2603839;54;20127;31
2023/10/31 17:20:17;;;;;;;5.38;2.92;;;13.60;88.40;;;;;;2621967;46;20027;31
2023/10/31 17:22:53;;;;;;;5.60;2.50;;;13.50;82.90;;;;;;2603752;54;20033;31
2023/10/31 17:25:28;;;;;;;3.95;1.70;;;13.50;86.00;;;;;;2720518;39;20446;31
2023/10/31 17:28:04;;;;;;;1.80;1.03;;;13.50;86.70;;;;;;2603287;54;20093;31
2023/10/31 17:30:39;;;;;;;2.97;1.10;;;13.50;85.90;;;;;;2603768;54;20117;31
2023/10/31 17:33:17;;;;;;;2.88;1.48;;;13.50;86.70;;;;;;2622010;46;20573;31
2023/10/31 17:35:52;;;;;;;4.78;2.15;;;13.50;87.70;;;;;;2603719;54;20793;31
2023/10/31 17:38:27;;;;;;;3.15;1.33;;;13.40;85.60;;;;;;2603471;54;20085;31
2023/10/31 17:41:02;;;;;;;3.65;1.60;;;13.40;86.70;;;;;;2622112;46;20030;31
2023/10/31 17:43:38;;;;;;;4.40;1.10;;;13.40;87.60;;;;;;2621807;46;20887;31
2023/10/31 17:46:12;;;;;;;2.97;1.30;;;13.40;87.10;;;;;;2603821;54;21221;31
2023/10/31 17:48:50;;;;;;;3.17;1.30;;;13.40;88.70;;;;;;2603716;54;20061;31
2023/10/31 17:51:28;;;;;;;4.00;1.75;;;13.40;89.60;;;;;;2603480;54;20042;31
2023/10/31 17:54:03;;;;;;;3.95;1.98;;;13.30;89.10;;;;;;2603648;54;20101;31
2023/10/31 17:56:40;;;;;;;3.15;1.45;;;13.30;89.40;;;;;;2603539;54;20860;31
2023/10/31 17:59:14;;;;;;;2.97;1.20;;;13.30;90.90;;;;;;2621821;46;20808;31